Time;durP1;ratioP1;P1;durP2;ratioP2;P2;SDS_P1;SDS_P2;PMS_P1;PMS_P2;Temp;Humidity;BMP_temperature;BMP_pressure;BME280_temperature;BME280_humidity;BME280_pressure;Samples;Min_cycle;Max_cycle;Signal;HPM_P1;HPM_P2
2021/03/02 00:02:20;;;;;;;48.28;30.60;;;;;;;;;;5087133;28;20400;-72
2021/03/02 00:04:46;;;;;;;49.05;30.48;;;;;;;;;;5075764;28;20392;-72
2021/03/02 00:07:13;;;;;;;53.85;32.53;;;;;;;;;;5083357;28;20397;-72
2021/03/02 00:09:39;;;;;;;54.20;32.28;;;;;;;;;;5086116;28;20468;-72
2021/03/02 00:12:05;;;;;;;53.50;32.83;;;;;;;;;;5079450;28;20898;-72
2021/03/02 00:14:31;;;;;;;53.47;31.98;;;;;;;;;;5084409;28;20497;-72
2021/03/02 00:16:59;;;;;;;51.17;32.47;;;;;;;;;;5078163;28;20449;-72
2021/03/02 00:19:33;;;;;;;55.40;34.63;;;;;;;;;;5067935;28;20387;-72
2021/03/02 00:22:33;;;;;;;55.97;34.30;;;;;;;;;;5068022;28;20451;-72
2021/03/02 00:25:02;;;;;;;54.00;34.05;;;;;;;;;;5032439;28;20890;-72
2021/03/02 00:27:29;;;;;;;53.70;33.65;;;;;;;;;;5081456;28;20523;-72
2021/03/02 00:29:55;;;;;;;55.08;33.65;;;;;;;;;;5082946;28;20838;-71
2021/03/02 00:32:23;;;;;;;54.92;34.65;;;;;;;;;;5087407;28;20366;-73
2021/03/02 00:34:49;;;;;;;57.50;34.35;;;;;;;;;;5086288;28;20501;-73
2021/03/02 00:37:15;;;;;;;53.05;33.15;;;;;;;;;;5083053;28;20398;-72
2021/03/02 00:39:42;;;;;;;63.63;35.20;;;;;;;;;;5068074;28;20430;-72
2021/03/02 00:42:08;;;;;;;54.95;35.72;;;;;;;;;;5067603;28;20387;-72
2021/03/02 00:44:35;;;;;;;58.03;35.23;;;;;;;;;;5071945;28;20406;-72
2021/03/02 00:47:01;;;;;;;55.30;33.97;;;;;;;;;;5085520;28;20789;-72
2021/03/02 00:49:27;;;;;;;56.90;36.55;;;;;;;;;;5087998;28;20732;-72
2021/03/02 00:51:53;;;;;;;58.92;35.65;;;;;;;;;;5070740;28;20388;-72
2021/03/02 00:54:19;;;;;;;57.58;35.50;;;;;;;;;;5074160;28;20854;-72
2021/03/02 00:56:45;;;;;;;61.20;35.90;;;;;;;;;;5091161;28;20416;-72
2021/03/02 00:59:11;;;;;;;58.20;36.30;;;;;;;;;;5091673;28;20442;-72
2021/03/02 01:01:37;;;;;;;56.10;36.00;;;;;;;;;;5075999;28;20419;-72
2021/03/02 01:04:04;;;;;;;59.83;37.22;;;;;;;;;;5087412;28;20428;-72
2021/03/02 01:06:30;;;;;;;58.80;35.53;;;;;;;;;;5078237;28;20388;-72
2021/03/02 01:08:56;;;;;;;57.20;34.63;;;;;;;;;;5075564;28;20378;-72
2021/03/02 01:11:22;;;;;;;60.60;36.28;;;;;;;;;;5075367;28;20407;-72
2021/03/02 01:13:48;;;;;;;59.83;35.93;;;;;;;;;;5075422;28;20411;-72
2021/03/02 01:16:14;;;;;;;57.75;35.78;;;;;;;;;;5070967;28;20392;-72
2021/03/02 01:18:40;;;;;;;59.05;34.95;;;;;;;;;;5074407;28;20406;-72
2021/03/02 01:30:17;;;;;;;59.08;35.42;;;;;;;;;;5077229;28;20405;-72
2021/03/02 01:32:43;;;;;;;59.63;37.63;;;;;;;;;;5090717;28;20396;-72
2021/03/02 01:35:10;;;;;;;60.17;36.90;;;;;;;;;;5072178;28;20415;-72
2021/03/02 01:37:36;;;;;;;63.42;37.00;;;;;;;;;;5081276;28;21019;-72
2021/03/02 01:40:08;;;;;;;58.58;36.15;;;;;;;;;;5080675;28;20872;-72
2021/03/02 01:42:34;;;;;;;58.45;35.72;;;;;;;;;;5070045;28;20399;-72
2021/03/02 01:45:00;;;;;;;62.87;37.73;;;;;;;;;;5072455;28;20451;-72
2021/03/02 01:47:26;;;;;;;58.33;35.33;;;;;;;;;;5086052;28;20450;-72
2021/03/02 01:49:52;;;;;;;59.55;35.65;;;;;;;;;;5073764;28;20760;-71
2021/03/02 01:52:18;;;;;;;61.70;37.05;;;;;;;;;;5076482;28;20388;-72
2021/03/02 01:54:44;;;;;;;62.17;37.65;;;;;;;;;;5071855;28;20421;-71
2021/03/02 01:57:10;;;;;;;66.95;40.40;;;;;;;;;;5079543;28;20473;-71
2021/03/02 01:59:36;;;;;;;67.13;39.83;;;;;;;;;;5071325;28;20482;-72
2021/03/02 02:02:02;;;;;;;62.97;38.87;;;;;;;;;;5086961;28;20401;-72
2021/03/02 02:04:32;;;;;;;57.10;36.08;;;;;;;;;;5085989;28;20394;-72
2021/03/02 02:07:01;;;;;;;62.83;38.50;;;;;;;;;;5080386;28;20396;-71
2021/03/02 02:09:34;;;;;;;69.28;40.42;;;;;;;;;;5083326;28;20489;-72
2021/03/02 02:12:18;;;;;;;72.75;41.42;;;;;;;;;;5086422;28;20406;-72
2021/03/02 02:14:46;;;;;;;71.43;40.97;;;;;;;;;;5089076;28;20414;-71
2021/03/02 02:17:24;;;;;;;69.93;40.60;;;;;;;;;;5078678;28;20414;-72
2021/03/02 02:19:54;;;;;;;79.75;42.30;;;;;;;;;;5081735;28;20409;-72
2021/03/02 02:22:34;;;;;;;76.68;43.15;;;;;;;;;;5076054;28;20570;-71
2021/03/02 02:25:18;;;;;;;73.88;42.80;;;;;;;;;;5071446;28;25109;-72
2021/03/02 02:27:47;;;;;;;70.78;40.58;;;;;;;;;;5075097;28;20410;-72
2021/03/02 02:30:14;;;;;;;70.22;41.17;;;;;;;;;;5076036;28;21203;-72
2021/03/02 02:32:42;;;;;;;78.10;43.90;;;;;;;;;;5073702;28;20839;-71
2021/03/02 02:35:09;;;;;;;69.30;39.08;;;;;;;;;;5090061;28;20438;-72
2021/03/02 02:37:35;;;;;;;68.65;40.38;;;;;;;;;;5089046;28;20401;-71
2021/03/02 02:40:02;;;;;;;74.05;41.42;;;;;;;;;;5088646;28;20390;-72
2021/03/02 02:42:29;;;;;;;72.35;42.15;;;;;;;;;;5088545;28;20398;-72
2021/03/02 02:44:55;;;;;;;74.65;43.22;;;;;;;;;;5083191;28;20380;-73
2021/03/02 02:47:21;;;;;;;78.57;43.50;;;;;;;;;;5073493;28;20452;-71
2021/03/02 02:49:48;;;;;;;70.97;40.42;;;;;;;;;;5073524;28;20402;-72
2021/03/02 02:52:15;;;;;;;72.10;41.92;;;;;;;;;;5076970;28;20413;-72
2021/03/02 02:54:43;;;;;;;80.25;43.97;;;;;;;;;;5072976;28;20428;-71
2021/03/02 02:57:09;;;;;;;77.78;42.15;;;;;;;;;;5081641;28;20719;-72
2021/03/02 02:59:37;;;;;;;79.38;43.58;;;;;;;;;;5088239;28;20452;-71
2021/03/02 03:02:06;;;;;;;78.18;42.40;;;;;;;;;;5080328;28;20770;-72
2021/03/02 03:04:45;;;;;;;65.93;40.40;;;;;;;;;;5073723;28;20500;-71
2021/03/02 03:07:20;;;;;;;73.05;40.90;;;;;;;;;;5082435;28;25112;-71
2021/03/02 03:09:46;;;;;;;81.13;46.00;;;;;;;;;;5069264;28;21024;-71
2021/03/02 03:12:16;;;;;;;74.95;42.45;;;;;;;;;;5079898;28;20397;-71
2021/03/02 03:14:46;;;;;;;76.07;43.10;;;;;;;;;;5088968;28;20488;-71
2021/03/02 03:17:14;;;;;;;72.53;42.30;;;;;;;;;;5080113;28;20411;-72
2021/03/02 03:19:41;;;;;;;73.65;42.10;;;;;;;;;;5074977;28;20702;-71
2021/03/02 03:22:07;;;;;;;74.10;42.38;;;;;;;;;;5075830;28;20378;-72
2021/03/02 03:24:33;;;;;;;70.20;41.80;;;;;;;;;;5074951;28;20417;-72
2021/03/02 03:27:00;;;;;;;72.07;40.72;;;;;;;;;;5069151;28;21000;-71
2021/03/02 03:29:26;;;;;;;70.60;40.47;;;;;;;;;;5068427;28;20379;-72
2021/03/02 03:31:54;;;;;;;73.78;42.13;;;;;;;;;;5074323;28;20396;-71
2021/03/02 03:34:20;;;;;;;74.85;42.25;;;;;;;;;;5068612;28;20509;-71
2021/03/02 03:36:46;;;;;;;80.10;44.38;;;;;;;;;;5082608;28;20366;-72
2021/03/02 03:39:13;;;;;;;74.93;41.80;;;;;;;;;;5087241;28;20546;-72
2021/03/02 03:41:39;;;;;;;70.93;41.38;;;;;;;;;;5089934;28;20872;-71
2021/03/02 03:44:05;;;;;;;77.47;41.60;;;;;;;;;;5087481;28;20429;-72
2021/03/02 03:46:31;;;;;;;78.93;44.50;;;;;;;;;;5088839;28;20412;-72
2021/03/02 03:48:58;;;;;;;70.93;42.33;;;;;;;;;;5071766;28;20470;-71
2021/03/02 03:51:25;;;;;;;76.95;44.22;;;;;;;;;;5069813;28;20402;-71
2021/03/02 03:53:51;;;;;;;77.82;42.75;;;;;;;;;;5081829;28;20601;-72
2021/03/02 03:56:17;;;;;;;77.60;43.75;;;;;;;;;;5087844;28;20378;-71
2021/03/02 03:58:44;;;;;;;79.47;43.88;;;;;;;;;;5087532;28;20481;-72
2021/03/02 04:01:11;;;;;;;74.50;43.05;;;;;;;;;;5087573;28;20388;-72
2021/03/02 04:03:37;;;;;;;78.78;43.10;;;;;;;;;;5081093;28;20479;-71
2021/03/02 04:06:04;;;;;;;72.32;42.28;;;;;;;;;;5086343;28;20844;-71
2021/03/02 04:08:30;;;;;;;81.53;43.70;;;;;;;;;;5074333;28;20401;-72
2021/03/02 04:10:56;;;;;;;74.10;42.10;;;;;;;;;;5074201;28;20381;-71
2021/03/02 04:13:22;;;;;;;78.90;42.67;;;;;;;;;;5080003;28;20475;-71
2021/03/02 04:15:48;;;;;;;79.23;43.00;;;;;;;;;;5087511;28;20417;-71
2021/03/02 04:18:16;;;;;;;82.55;45.90;;;;;;;;;;5084466;28;20391;-71
2021/03/02 04:20:42;;;;;;;80.28;44.75;;;;;;;;;;5076177;28;20451;-72
2021/03/02 04:23:09;;;;;;;74.95;43.58;;;;;;;;;;5068724;28;20443;-72
2021/03/02 04:25:35;;;;;;;90.00;47.17;;;;;;;;;;5074095;28;20384;-71
2021/03/02 04:28:01;;;;;;;76.90;44.22;;;;;;;;;;5085516;28;20371;-72
2021/03/02 04:30:27;;;;;;;77.18;43.58;;;;;;;;;;5087899;28;20395;-71
2021/03/02 04:32:53;;;;;;;78.07;43.50;;;;;;;;;;5089929;28;20401;-71
2021/03/02 04:35:19;;;;;;;78.13;43.75;;;;;;;;;;5088718;28;21279;-71
2021/03/02 04:37:45;;;;;;;78.88;42.88;;;;;;;;;;5079292;28;20409;-71
2021/03/02 04:40:12;;;;;;;81.22;45.05;;;;;;;;;;5088132;28;20875;-71
2021/03/02 04:42:38;;;;;;;76.78;44.38;;;;;;;;;;5091497;28;20368;-71
2021/03/02 04:45:05;;;;;;;83.60;43.53;;;;;;;;;;5090042;28;20396;-71
2021/03/02 04:47:31;;;;;;;79.22;43.67;;;;;;;;;;5091050;28;20452;-71
2021/03/02 04:49:57;;;;;;;75.15;44.08;;;;;;;;;;5089425;28;20398;-71
2021/03/02 04:52:23;;;;;;;79.03;44.67;;;;;;;;;;5088479;28;20515;-72
2021/03/02 04:54:49;;;;;;;82.13;43.63;;;;;;;;;;5075412;28;20498;-72
2021/03/02 04:57:15;;;;;;;91.22;47.90;;;;;;;;;;5087884;28;20715;-71
2021/03/02 04:59:41;;;;;;;79.93;44.13;;;;;;;;;;5087787;28;20390;-71
2021/03/02 05:02:07;;;;;;;81.65;45.70;;;;;;;;;;5089297;28;20460;-72
2021/03/02 05:04:33;;;;;;;80.15;46.05;;;;;;;;;;5089332;28;20390;-72
2021/03/02 05:06:59;;;;;;;81.88;46.40;;;;;;;;;;5080829;28;20482;-71
2021/03/02 05:09:25;;;;;;;80.47;43.88;;;;;;;;;;5088602;28;20394;-71
2021/03/02 05:11:53;;;;;;;94.45;46.17;;;;;;;;;;5088584;28;20459;-71
2021/03/02 05:14:19;;;;;;;78.88;44.15;;;;;;;;;;5078971;28;20436;-71
2021/03/02 05:16:45;;;;;;;82.50;46.65;;;;;;;;;;5076118;28;20416;-72
2021/03/02 05:19:11;;;;;;;84.97;45.47;;;;;;;;;;5081239;28;20402;-71
2021/03/02 05:21:37;;;;;;;79.82;44.17;;;;;;;;;;5071177;28;20387;-71
2021/03/02 05:24:03;;;;;;;79.88;43.55;;;;;;;;;;5085878;28;20394;-71
2021/03/02 05:26:29;;;;;;;73.18;41.92;;;;;;;;;;5085639;28;20444;-71
2021/03/02 05:28:57;;;;;;;73.00;40.83;;;;;;;;;;5071022;28;20515;-71
2021/03/02 05:31:23;;;;;;;76.97;43.10;;;;;;;;;;5088982;28;20382;-71
2021/03/02 05:33:49;;;;;;;71.65;41.28;;;;;;;;;;5072250;28;20418;-71
2021/03/02 05:36:15;;;;;;;70.70;40.80;;;;;;;;;;5073256;28;20378;-71
2021/03/02 05:38:41;;;;;;;67.87;40.50;;;;;;;;;;5077621;28;20393;-71
2021/03/02 05:41:08;;;;;;;71.07;39.50;;;;;;;;;;5080236;28;20390;-72
2021/03/02 05:43:35;;;;;;;71.80;40.55;;;;;;;;;;5071188;28;20385;-71
2021/03/02 05:46:02;;;;;;;69.25;39.83;;;;;;;;;;5084901;28;20737;-71
2021/03/02 05:48:29;;;;;;;71.18;41.38;;;;;;;;;;5089388;28;20865;-72
2021/03/02 05:50:55;;;;;;;71.75;40.70;;;;;;;;;;5087214;28;20404;-71
2021/03/02 05:53:22;;;;;;;72.10;41.55;;;;;;;;;;5075859;28;20395;-71
2021/03/02 05:55:48;;;;;;;69.63;39.80;;;;;;;;;;5084002;28;20992;-71
2021/03/02 05:58:15;;;;;;;76.47;42.80;;;;;;;;;;5089560;28;20426;-71
2021/03/02 06:00:41;;;;;;;68.87;41.17;;;;;;;;;;5080806;28;20386;-71
2021/03/02 06:03:07;;;;;;;73.18;42.20;;;;;;;;;;5088306;28;20871;-71
2021/03/02 06:05:34;;;;;;;71.30;41.00;;;;;;;;;;5079392;28;20824;-71
2021/03/02 06:08:01;;;;;;;68.30;40.05;;;;;;;;;;5070509;28;20394;-71
2021/03/02 06:10:33;;;;;;;74.97;43.17;;;;;;;;;;5079831;28;20407;-71
2021/03/02 06:13:00;;;;;;;72.22;42.75;;;;;;;;;;5083259;28;20540;-72
2021/03/02 06:15:26;;;;;;;75.78;43.00;;;;;;;;;;5069555;28;20480;-71
2021/03/02 06:18:08;;;;;;;70.82;40.65;;;;;;;;;;5087725;28;20393;-71
2021/03/02 06:20:34;;;;;;;73.33;41.80;;;;;;;;;;5079198;28;20388;-71
2021/03/02 06:23:22;;;;;;;72.30;40.83;;;;;;;;;;5089120;28;20399;-71
2021/03/02 06:25:48;;;;;;;68.88;40.53;;;;;;;;;;5081323;28;25116;-71
2021/03/02 06:28:14;;;;;;;68.43;40.53;;;;;;;;;;5074624;28;20941;-71
2021/03/02 06:30:40;;;;;;;71.00;40.03;;;;;;;;;;5070096;28;20395;-71
2021/03/02 06:33:17;;;;;;;74.15;42.22;;;;;;;;;;5089120;28;20401;-71
2021/03/02 06:35:45;;;;;;;73.32;41.17;;;;;;;;;;5080163;28;20426;-71
2021/03/02 06:38:12;;;;;;;72.97;42.08;;;;;;;;;;5083954;28;20499;-71
2021/03/02 06:40:39;;;;;;;70.30;40.63;;;;;;;;;;5082683;28;20448;-71
2021/03/02 06:43:05;;;;;;;70.57;39.63;;;;;;;;;;5074908;28;20445;-71
2021/03/02 06:45:31;;;;;;;66.33;39.27;;;;;;;;;;5087490;28;20522;-71
2021/03/02 06:48:03;;;;;;;71.20;40.95;;;;;;;;;;5087648;28;20430;-71
2021/03/02 06:50:30;;;;;;;66.20;40.22;;;;;;;;;;5084221;28;20432;-71
2021/03/02 06:52:56;;;;;;;65.18;38.97;;;;;;;;;;5086795;28;20465;-71
2021/03/02 06:55:23;;;;;;;65.78;39.85;;;;;;;;;;5081772;28;20425;-71
2021/03/02 06:57:50;;;;;;;68.15;40.05;;;;;;;;;;5078071;28;20387;-72
2021/03/02 07:00:16;;;;;;;67.05;40.25;;;;;;;;;;5069470;28;20361;-71
2021/03/02 07:02:43;;;;;;;66.18;38.92;;;;;;;;;;5085715;28;21032;-71
2021/03/02 07:05:11;;;;;;;62.50;38.58;;;;;;;;;;5076585;28;20377;-72
2021/03/02 07:07:37;;;;;;;65.47;39.90;;;;;;;;;;5082105;28;20456;-71
2021/03/02 07:10:05;;;;;;;68.72;41.00;;;;;;;;;;5085005;28;20380;-71
2021/03/02 07:12:33;;;;;;;71.43;39.38;;;;;;;;;;5073183;28;20428;-71
2021/03/02 07:15:00;;;;;;;59.95;36.83;;;;;;;;;;5071659;28;20436;-71
2021/03/02 07:17:27;;;;;;;64.95;39.25;;;;;;;;;;5080634;28;20390;-71
2021/03/02 07:19:53;;;;;;;65.30;38.13;;;;;;;;;;5085597;28;20536;-71
2021/03/02 07:22:19;;;;;;;63.90;37.97;;;;;;;;;;5077367;28;20419;-71
2021/03/02 07:24:46;;;;;;;63.03;38.17;;;;;;;;;;5072447;28;20839;-71
2021/03/02 07:27:13;;;;;;;64.30;38.15;;;;;;;;;;5072520;28;20388;-71
2021/03/02 07:29:39;;;;;;;66.97;40.90;;;;;;;;;;5083890;28;20825;-70
2021/03/02 07:32:08;;;;;;;66.28;38.97;;;;;;;;;;5082722;28;20398;-71
2021/03/02 07:34:34;;;;;;;62.65;38.13;;;;;;;;;;5076701;28;20542;-71
2021/03/02 07:37:00;;;;;;;67.57;39.80;;;;;;;;;;5081574;28;20468;-73
2021/03/02 07:39:27;;;;;;;64.25;38.90;;;;;;;;;;5074251;28;20438;-71
2021/03/02 07:41:53;;;;;;;64.13;39.03;;;;;;;;;;5078494;28;20492;-71
2021/03/02 07:44:20;;;;;;;62.47;38.22;;;;;;;;;;5082968;28;20389;-72
2021/03/02 07:46:48;;;;;;;62.35;38.03;;;;;;;;;;5075134;28;20377;-72
2021/03/02 07:49:23;;;;;;;59.80;36.65;;;;;;;;;;5074038;28;20503;-71
2021/03/02 07:52:01;;;;;;;59.05;37.30;;;;;;;;;;5074248;28;25201;-72
2021/03/02 07:54:27;;;;;;;63.00;38.17;;;;;;;;;;5072849;28;20695;-71
2021/03/02 07:57:12;;;;;;;61.50;37.42;;;;;;;;;;5082043;28;20401;-71
2021/03/02 07:59:39;;;;;;;60.13;37.28;;;;;;;;;;5086327;28;25109;-72
2021/03/02 08:02:18;;;;;;;57.65;36.22;;;;;;;;;;5075044;28;20425;-72
2021/03/02 08:04:45;;;;;;;54.20;34.45;;;;;;;;;;5084554;28;20527;-72
2021/03/02 08:07:18;;;;;;;62.50;37.55;;;;;;;;;;5076117;28;20378;-72
2021/03/02 08:09:46;;;;;;;56.50;35.78;;;;;;;;;;5078774;28;20399;-72
2021/03/02 08:12:25;;;;;;;55.42;35.45;;;;;;;;;;5087930;28;20374;-72
2021/03/02 08:14:51;;;;;;;54.23;33.87;;;;;;;;;;5081867;28;20427;-72
2021/03/02 08:17:20;;;;;;;53.53;33.50;;;;;;;;;;5078106;28;20765;-72
2021/03/02 08:19:49;;;;;;;56.35;34.65;;;;;;;;;;5078166;28;20425;-72
2021/03/02 08:22:18;;;;;;;50.58;32.30;;;;;;;;;;5077789;28;20414;-72
2021/03/02 08:24:50;;;;;;;53.67;35.25;;;;;;;;;;5081828;28;20981;-71
2021/03/02 08:27:36;;;;;;;50.83;33.00;;;;;;;;;;5077627;28;20426;-71
2021/03/02 08:30:21;;;;;;;50.28;33.35;;;;;;;;;;5077591;28;20393;-72
2021/03/02 08:32:48;;;;;;;49.42;31.45;;;;;;;;;;5086623;28;20374;-72
2021/03/02 08:35:18;;;;;;;48.15;31.42;;;;;;;;;;5080144;28;20417;-72
2021/03/02 08:37:47;;;;;;;49.10;32.75;;;;;;;;;;5085687;28;20390;-73
2021/03/02 08:40:15;;;;;;;46.55;31.15;;;;;;;;;;5072787;28;20401;-71
2021/03/02 08:42:59;;;;;;;49.22;32.70;;;;;;;;;;5073778;28;20399;-71
2021/03/02 08:45:25;;;;;;;48.63;32.10;;;;;;;;;;5085002;28;20445;-71
2021/03/02 08:47:51;;;;;;;44.80;30.05;;;;;;;;;;5074940;28;20415;-72
2021/03/02 08:50:33;;;;;;;46.17;31.02;;;;;;;;;;5085896;28;20405;-71
2021/03/02 08:52:59;;;;;;;44.25;30.00;;;;;;;;;;5084616;28;20374;-72
2021/03/02 08:55:38;;;;;;;45.03;30.30;;;;;;;;;;5076615;28;20479;-72
2021/03/02 08:58:04;;;;;;;43.63;29.03;;;;;;;;;;5079507;28;20480;-71
2021/03/02 09:00:31;;;;;;;43.60;29.25;;;;;;;;;;5072635;28;20395;-72
2021/03/02 09:02:57;;;;;;;42.92;27.85;;;;;;;;;;5070234;28;20401;-73
2021/03/02 09:05:23;;;;;;;44.53;30.15;;;;;;;;;;5085414;28;20371;-71
2021/03/02 09:08:05;;;;;;;42.03;28.70;;;;;;;;;;5086329;28;20777;-72
2021/03/02 09:10:33;;;;;;;43.95;29.08;;;;;;;;;;5077099;28;20912;-72
2021/03/02 09:12:59;;;;;;;40.83;28.03;;;;;;;;;;5086037;28;20539;-72
2021/03/02 09:15:39;;;;;;;38.92;27.55;;;;;;;;;;5083158;28;20498;-72
2021/03/02 09:18:15;;;;;;;42.30;27.95;;;;;;;;;;5087304;28;20382;-72
2021/03/02 09:20:54;;;;;;;40.78;27.65;;;;;;;;;;5089135;28;20386;-72
2021/03/02 09:23:20;;;;;;;43.55;28.13;;;;;;;;;;5082086;28;20382;-72
2021/03/02 09:25:46;;;;;;;41.20;27.17;;;;;;;;;;5080413;28;20482;-72
2021/03/02 09:28:18;;;;;;;38.60;26.17;;;;;;;;;;5078632;28;20470;-74
2021/03/02 09:30:46;;;;;;;38.47;26.63;;;;;;;;;;5087868;28;20405;-73
2021/03/02 09:33:17;;;;;;;41.25;26.15;;;;;;;;;;5086167;28;20465;-73
2021/03/02 09:35:43;;;;;;;39.55;25.75;;;;;;;;;;5081383;28;20437;-71
2021/03/02 09:38:27;;;;;;;35.08;25.08;;;;;;;;;;5075362;28;20404;-72
2021/03/02 09:40:54;;;;;;;33.50;24.02;;;;;;;;;;5082313;28;20416;-70
2021/03/02 09:43:21;;;;;;;37.33;25.25;;;;;;;;;;5084632;28;20390;-72
2021/03/02 09:45:53;;;;;;;33.15;23.20;;;;;;;;;;5080742;28;20912;-72
2021/03/02 09:48:20;;;;;;;32.88;23.55;;;;;;;;;;5080433;28;20461;-73
2021/03/02 09:50:46;;;;;;;33.75;21.70;;;;;;;;;;5079045;28;20711;-71
2021/03/02 09:53:15;;;;;;;37.38;22.27;;;;;;;;;;5076698;28;20408;-72
2021/03/02 09:55:47;;;;;;;32.13;21.63;;;;;;;;;;5081286;28;20414;-72
2021/03/02 09:58:20;;;;;;;33.78;22.42;;;;;;;;;;5089908;28;20443;-72
2021/03/02 10:00:46;;;;;;;32.33;21.93;;;;;;;;;;5085720;28;20472;-72
2021/03/02 10:03:13;;;;;;;34.03;23.17;;;;;;;;;;5087255;28;20481;-72
2021/03/02 10:05:43;;;;;;;34.33;22.43;;;;;;;;;;5086793;28;21007;-72
2021/03/02 10:08:18;;;;;;;31.63;22.08;;;;;;;;;;5091411;28;20375;-72
2021/03/02 10:10:44;;;;;;;30.40;21.90;;;;;;;;;;5080765;28;20920;-71
2021/03/02 10:13:10;;;;;;;28.60;21.08;;;;;;;;;;5075379;28;20417;-72
2021/03/02 10:15:36;;;;;;;29.58;21.10;;;;;;;;;;5077145;28;20493;-73
2021/03/02 10:18:21;;;;;;;29.98;21.27;;;;;;;;;;5081199;28;20473;-71
2021/03/02 10:21:18;;;;;;;28.77;20.50;;;;;;;;;;5078412;28;20429;-72
2021/03/02 10:23:45;;;;;;;30.42;22.05;;;;;;;;;;5060734;28;20496;-72
2021/03/02 10:26:11;;;;;;;30.33;20.88;;;;;;;;;;5077274;28;20398;-71
2021/03/02 10:28:37;;;;;;;31.40;21.23;;;;;;;;;;5077908;28;20403;-72
2021/03/02 10:31:04;;;;;;;31.30;20.83;;;;;;;;;;5076696;28;20415;-72
2021/03/02 10:33:30;;;;;;;30.20;22.13;;;;;;;;;;5080286;28;20477;-72
2021/03/02 10:35:57;;;;;;;28.08;19.73;;;;;;;;;;5088690;28;20762;-71
2021/03/02 10:38:23;;;;;;;29.95;21.25;;;;;;;;;;5088009;28;20417;-72
2021/03/02 10:40:49;;;;;;;29.00;20.70;;;;;;;;;;5084550;28;20417;-72
2021/03/02 10:43:15;;;;;;;28.05;20.15;;;;;;;;;;5069865;28;20402;-72
2021/03/02 10:45:41;;;;;;;28.58;20.77;;;;;;;;;;5076792;28;21411;-72
2021/03/02 10:48:07;;;;;;;30.63;20.95;;;;;;;;;;5084565;28;20406;-71
2021/03/02 10:50:33;;;;;;;27.10;19.95;;;;;;;;;;5088327;28;20374;-72
2021/03/02 10:52:59;;;;;;;25.83;19.17;;;;;;;;;;5072174;28;20409;-72
2021/03/02 10:55:26;;;;;;;27.67;20.02;;;;;;;;;;5073141;28;20415;-71
2021/03/02 10:57:52;;;;;;;26.58;18.60;;;;;;;;;;5078543;28;20452;-72
2021/03/02 11:00:19;;;;;;;25.38;18.02;;;;;;;;;;5098200;28;20439;-72
2021/03/02 11:02:45;;;;;;;25.33;17.20;;;;;;;;;;5086486;28;20510;-72
2021/03/02 11:05:12;;;;;;;21.45;15.98;;;;;;;;;;5071031;28;20394;-71
2021/03/02 11:07:38;;;;;;;23.17;16.83;;;;;;;;;;5078928;28;20430;-73
2021/03/02 11:10:05;;;;;;;24.73;17.13;;;;;;;;;;5076769;28;20397;-73
2021/03/02 11:12:30;;;;;;;25.25;17.15;;;;;;;;;;5079643;28;20401;-71
2021/03/02 11:14:56;;;;;;;21.75;15.77;;;;;;;;;;5071371;28;20410;-73
2021/03/02 11:17:22;;;;;;;22.27;15.95;;;;;;;;;;5078494;28;20418;-74
2021/03/02 11:19:49;;;;;;;23.67;16.67;;;;;;;;;;5083834;28;20435;-74
2021/03/02 11:22:15;;;;;;;20.83;15.25;;;;;;;;;;5071343;28;20387;-73
2021/03/02 11:24:41;;;;;;;21.43;15.40;;;;;;;;;;5083624;28;20452;-72
2021/03/02 11:27:07;;;;;;;23.17;16.10;;;;;;;;;;5078409;28;20974;-72
2021/03/02 11:29:36;;;;;;;23.70;15.75;;;;;;;;;;5073883;28;20398;-72
2021/03/02 11:32:03;;;;;;;23.10;16.13;;;;;;;;;;5072760;28;20391;-74
2021/03/02 11:34:29;;;;;;;23.48;16.13;;;;;;;;;;5078099;28;20421;-73
2021/03/02 11:36:55;;;;;;;21.50;15.88;;;;;;;;;;5075725;28;20392;-73
2021/03/02 11:39:21;;;;;;;21.15;14.60;;;;;;;;;;5076329;28;20440;-74
2021/03/02 11:41:47;;;;;;;18.27;13.80;;;;;;;;;;5088745;28;20474;-72
2021/03/02 11:44:13;;;;;;;22.13;15.02;;;;;;;;;;5079701;28;20411;-73
2021/03/02 11:46:39;;;;;;;21.05;14.52;;;;;;;;;;5073133;28;20799;-75
2021/03/02 11:49:05;;;;;;;22.30;15.73;;;;;;;;;;5083546;28;20490;-74
2021/03/02 11:51:31;;;;;;;19.57;14.67;;;;;;;;;;5085446;28;20520;-73
2021/03/02 11:53:57;;;;;;;21.50;15.40;;;;;;;;;;5069087;28;20383;-72
2021/03/02 11:56:23;;;;;;;21.58;15.23;;;;;;;;;;5069630;28;20398;-72
2021/03/02 11:58:49;;;;;;;22.10;15.73;;;;;;;;;;5087428;28;20770;-73
2021/03/02 12:01:15;;;;;;;23.10;15.27;;;;;;;;;;5081791;28;20871;-73
2021/03/02 12:03:41;;;;;;;23.10;16.48;;;;;;;;;;5091047;28;20396;-75
2021/03/02 12:06:07;;;;;;;21.73;16.15;;;;;;;;;;5093115;28;20874;-74
2021/03/02 12:08:34;;;;;;;23.17;15.13;;;;;;;;;;5070436;28;20826;-72
2021/03/02 12:11:00;;;;;;;21.63;15.63;;;;;;;;;;5083139;28;20469;-72
2021/03/02 12:13:26;;;;;;;23.25;15.95;;;;;;;;;;5071721;28;20903;-72
2021/03/02 12:15:52;;;;;;;25.52;16.48;;;;;;;;;;5071425;28;20496;-73
2021/03/02 12:18:18;;;;;;;23.27;16.05;;;;;;;;;;5068116;28;20391;-73
2021/03/02 12:20:44;;;;;;;22.00;16.92;;;;;;;;;;5067276;28;20411;-73
2021/03/02 12:23:10;;;;;;;22.13;16.50;;;;;;;;;;5068677;28;20386;-73
2021/03/02 12:25:36;;;;;;;23.08;17.13;;;;;;;;;;5088421;28;20401;-72
2021/03/02 12:28:02;;;;;;;22.50;17.70;;;;;;;;;;5077200;28;20442;-74
2021/03/02 12:30:28;;;;;;;26.52;17.63;;;;;;;;;;5082524;28;20388;-73
2021/03/02 12:32:54;;;;;;;23.27;17.63;;;;;;;;;;5082819;28;20390;-73
2021/03/02 12:35:20;;;;;;;23.83;17.48;;;;;;;;;;5068333;28;20408;-74
2021/03/02 12:37:47;;;;;;;23.02;17.58;;;;;;;;;;5081360;28;20401;-71
2021/03/02 12:40:13;;;;;;;24.70;16.80;;;;;;;;;;5085180;28;20378;-70
2021/03/02 12:42:39;;;;;;;22.20;16.35;;;;;;;;;;5085026;28;20402;-72
